Time;durP1;ratioP1;P1;durP2;ratioP2;P2;SDS_P1;SDS_P2;PMS_P1;PMS_P2;Temp;Humidity;BMP_temperature;BMP_pressure;BME280_temperature;BME280_humidity;BME280_pressure;Samples;Min_cycle;Max_cycle;Signal;HPM_P1;HPM_P2
2023/08/04 00:01:05;;;;;;;13.30;3.35;;;;;;;;;;5065207;28;20096;-87
2023/08/04 00:03:35;;;;;;;10.63;3.15;;;;;;;;;;5088199;28;20052;-86
2023/08/04 00:06:07;;;;;;;13.05;3.38;;;;;;;;;;5065846;28;20052;-86
2023/08/04 00:08:34;;;;;;;12.00;3.38;;;;;;;;;;5083755;28;20062;-87
2023/08/04 00:11:04;;;;;;;13.57;2.80;;;;;;;;;;5064551;28;20199;-86
2023/08/04 00:13:32;;;;;;;10.32;3.00;;;;;;;;;;5066297;28;20059;-86
2023/08/04 00:16:03;;;;;;;11.68;3.85;;;;;;;;;;5064066;28;20048;-87
2023/08/04 00:18:30;;;;;;;13.93;2.67;;;;;;;;;;5063971;28;20062;-87
2023/08/04 00:20:57;;;;;;;12.02;2.63;;;;;;;;;;5062346;28;20048;-86
2023/08/04 00:23:32;;;;;;;10.75;3.63;;;;;;;;;;5063956;28;20124;-87
2023/08/04 00:25:58;;;;;;;8.80;2.72;;;;;;;;;;5081876;28;20111;-87
2023/08/04 00:28:27;;;;;;;8.70;3.05;;;;;;;;;;5062608;28;20091;-87
2023/08/04 00:30:54;;;;;;;6.72;2.30;;;;;;;;;;5066132;28;20040;-87
2023/08/04 00:33:22;;;;;;;16.83;3.13;;;;;;;;;;5064877;28;20068;-86
2023/08/04 00:35:49;;;;;;;10.77;2.63;;;;;;;;;;5062822;28;20068;-86
2023/08/04 00:38:16;;;;;;;10.90;2.92;;;;;;;;;;5064139;28;20049;-86
2023/08/04 00:40:47;;;;;;;10.23;2.53;;;;;;;;;;5063723;28;20355;-87
2023/08/04 00:43:17;;;;;;;10.82;2.75;;;;;;;;;;5062739;28;20044;-87
2023/08/04 00:45:44;;;;;;;12.43;2.88;;;;;;;;;;5080708;28;20072;-87
2023/08/04 00:48:11;;;;;;;8.68;2.92;;;;;;;;;;5080072;28;20066;-86
2023/08/04 00:50:45;;;;;;;5.70;2.35;;;;;;;;;;5079850;28;20055;-86
2023/08/04 00:53:12;;;;;;;7.00;2.67;;;;;;;;;;5061834;28;20196;-86
2023/08/04 00:55:39;;;;;;;8.90;2.50;;;;;;;;;;5062325;28;20052;-87
2023/08/04 00:58:06;;;;;;;11.98;2.75;;;;;;;;;;5062577;28;20057;-86
2023/08/04 01:00:33;;;;;;;8.50;2.70;;;;;;;;;;5062935;28;20059;-87
2023/08/04 01:03:01;;;;;;;8.35;2.47;;;;;;;;;;5063291;28;20118;-87
2023/08/04 01:05:32;;;;;;;10.77;2.60;;;;;;;;;;5081624;28;20036;-87
2023/08/04 01:08:13;;;;;;;8.52;2.28;;;;;;;;;;5064242;28;20028;-86
2023/08/04 01:10:55;;;;;;;11.77;2.42;;;;;;;;;;5081796;28;20096;-86
2023/08/04 01:13:22;;;;;;;8.20;2.85;;;;;;;;;;5062363;28;20047;-86
2023/08/04 01:15:49;;;;;;;22.25;3.42;;;;;;;;;;5063974;28;20052;-87
2023/08/04 01:18:21;;;;;;;6.10;2.40;;;;;;;;;;5062848;28;20107;-86
2023/08/04 01:20:49;;;;;;;12.48;3.90;;;;;;;;;;5060477;28;20045;-87
2023/08/04 01:23:16;;;;;;;6.15;2.88;;;;;;;;;;5060489;28;20070;-86
2023/08/04 01:25:44;;;;;;;11.07;3.88;;;;;;;;;;5060441;28;20092;-87
2023/08/04 01:28:15;;;;;;;9.48;2.65;;;;;;;;;;5051746;28;20076;-86
2023/08/04 01:30:47;;;;;;;7.78;2.83;;;;;;;;;;5068267;28;20065;-87
2023/08/04 01:33:14;;;;;;;9.15;2.90;;;;;;;;;;5047315;28;20400;-85
2023/08/04 01:35:42;;;;;;;13.07;3.10;;;;;;;;;;5042750;28;20130;-87
2023/08/04 01:38:12;;;;;;;11.32;3.42;;;;;;;;;;5042076;28;20063;-85
2023/08/04 01:40:39;;;;;;;7.97;2.92;;;;;;;;;;5060808;28;20044;-87
2023/08/04 01:43:06;;;;;;;11.90;3.63;;;;;;;;;;5045933;28;20063;-85
2023/08/04 01:45:32;;;;;;;8.73;3.33;;;;;;;;;;5063976;28;20136;-86
2023/08/04 01:47:59;;;;;;;9.00;3.30;;;;;;;;;;5047876;28;20198;-85
2023/08/04 01:50:29;;;;;;;10.18;3.42;;;;;;;;;;5066892;28;20053;-85
2023/08/04 01:52:56;;;;;;;13.20;3.42;;;;;;;;;;5049084;28;20041;-85
2023/08/04 01:55:23;;;;;;;9.57;3.83;;;;;;;;;;5063593;28;20049;-85
2023/08/04 01:57:52;;;;;;;8.65;3.17;;;;;;;;;;5045199;28;20079;-86
2023/08/04 02:00:19;;;;;;;12.68;3.80;;;;;;;;;;5062803;28;20045;-85
2023/08/04 02:02:46;;;;;;;12.30;3.95;;;;;;;;;;5063407;28;20108;-85
2023/08/04 02:05:15;;;;;;;10.80;3.67;;;;;;;;;;5064633;28;20072;-85
2023/08/04 02:07:45;;;;;;;11.45;2.97;;;;;;;;;;5052440;28;20055;-86
2023/08/04 02:10:12;;;;;;;9.80;3.70;;;;;;;;;;5049663;28;20044;-86
2023/08/04 02:12:41;;;;;;;12.52;4.05;;;;;;;;;;5068054;28;20094;-86
2023/08/04 02:15:10;;;;;;;11.98;3.72;;;;;;;;;;5066940;28;20067;-86
2023/08/04 02:17:39;;;;;;;14.85;4.07;;;;;;;;;;5047576;28;20075;-86
2023/08/04 02:20:07;;;;;;;10.02;4.13;;;;;;;;;;5060545;28;20091;-86
2023/08/04 02:22:34;;;;;;;15.50;4.30;;;;;;;;;;5048344;28;20209;-86
2023/08/04 02:25:01;;;;;;;22.83;5.28;;;;;;;;;;5044663;28;20059;-86
2023/08/04 02:27:29;;;;;;;21.42;4.50;;;;;;;;;;5060135;28;20312;-86
2023/08/04 02:29:56;;;;;;;10.80;4.22;;;;;;;;;;5059505;28;20049;-86
2023/08/04 02:32:23;;;;;;;13.70;3.58;;;;;;;;;;5059166;28;20052;-86
2023/08/04 02:34:51;;;;;;;11.30;3.13;;;;;;;;;;5045226;28;20122;-85
2023/08/04 02:37:17;;;;;;;13.20;4.45;;;;;;;;;;5047405;28;20061;-86
2023/08/04 02:39:45;;;;;;;15.75;3.70;;;;;;;;;;5044528;28;20057;-86
2023/08/04 02:42:11;;;;;;;9.88;3.00;;;;;;;;;;5042986;28;20053;-87
2023/08/04 02:44:38;;;;;;;12.93;3.78;;;;;;;;;;5043252;28;20028;-86
2023/08/04 02:47:06;;;;;;;11.95;3.35;;;;;;;;;;5061031;28;20045;-86
2023/08/04 02:49:32;;;;;;;7.90;3.97;;;;;;;;;;5061271;28;20049;-87
2023/08/04 02:51:59;;;;;;;14.55;3.70;;;;;;;;;;5061464;28;20083;-87
2023/08/04 02:54:26;;;;;;;8.77;3.80;;;;;;;;;;5060651;28;20049;-87
2023/08/04 02:56:53;;;;;;;9.68;3.70;;;;;;;;;;5062252;28;20057;-85
2023/08/04 02:59:20;;;;;;;8.43;3.10;;;;;;;;;;5044398;28;20310;-86
2023/08/04 03:01:49;;;;;;;11.25;3.15;;;;;;;;;;5045073;28;20173;-86
2023/08/04 03:04:20;;;;;;;9.18;3.47;;;;;;;;;;5044614;28;20373;-86
2023/08/04 03:06:48;;;;;;;12.35;3.35;;;;;;;;;;5044120;28;20052;-85
2023/08/04 03:09:15;;;;;;;7.65;3.47;;;;;;;;;;5063347;28;20445;-85
2023/08/04 03:11:43;;;;;;;7.60;2.85;;;;;;;;;;5060484;28;20065;-86
2023/08/04 03:14:10;;;;;;;5.95;2.58;;;;;;;;;;5047220;28;20079;-86
2023/08/04 03:16:36;;;;;;;11.20;3.40;;;;;;;;;;5044445;28;20060;-87
2023/08/04 03:19:17;;;;;;;6.55;2.40;;;;;;;;;;5053033;28;20060;-86
2023/08/04 03:22:01;;;;;;;12.35;2.92;;;;;;;;;;5051020;28;20092;-88
2023/08/04 03:24:31;;;;;;;7.70;2.72;;;;;;;;;;5049758;28;20049;-85
2023/08/04 03:26:59;;;;;;;11.98;2.88;;;;;;;;;;5050232;28;20120;-86
2023/08/04 03:29:40;;;;;;;7.60;2.45;;;;;;;;;;5052098;28;20125;-88
2023/08/04 03:32:23;;;;;;;5.70;2.53;;;;;;;;;;5058994;22;20053;-88
2023/08/04 03:35:04;;;;;;;14.77;3.50;;;;;;;;;;5034650;28;20044;-89
2023/08/04 03:37:45;;;;;;;9.90;3.10;;;;;;;;;;5036218;28;20044;-88
2023/08/04 03:40:26;;;;;;;7.30;2.45;;;;;;;;;;5033030;28;20100;-87
2023/08/04 03:43:07;;;;;;;8.48;1.92;;;;;;;;;;5033457;28;20060;-87
2023/08/04 03:45:48;;;;;;;8.07;2.38;;;;;;;;;;5032724;28;20201;-86
2023/08/04 03:48:33;;;;;;;5.60;2.10;;;;;;;;;;5034740;28;20041;-86
2023/08/04 03:51:17;;;;;;;10.18;2.33;;;;;;;;;;5049124;28;20033;-87
2023/08/04 03:54:01;;;;;;;9.85;2.70;;;;;;;;;;5029623;28;20045;-87
2023/08/04 03:56:41;;;;;;;15.70;2.53;;;;;;;;;;5035584;28;20476;-87
2023/08/04 03:59:28;;;;;;;14.55;2.95;;;;;;;;;;5032082;28;20053;-85
2023/08/04 04:02:08;;;;;;;;;;;;;;;;;;5029038;28;20408;-86
2023/08/04 04:04:52;;;;;;;8.10;2.75;;;;;;;;;;5027969;28;20217;-87
2023/08/04 04:07:33;;;;;;;5.90;2.65;;;;;;;;;;5050306;28;20076;-86
2023/08/04 04:10:13;;;;;;;10.70;2.75;;;;;;;;;;5032017;28;20144;-86
2023/08/04 04:13:02;;;;;;;4.97;2.40;;;;;;;;;;5014290;28;20037;-86
2023/08/04 04:15:47;;;;;;;10.93;2.72;;;;;;;;;;5047203;28;20080;-86
2023/08/04 04:18:28;;;;;;;7.00;2.50;;;;;;;;;;5032178;28;20174;-87
2023/08/04 04:21:09;;;;;;;8.40;2.60;;;;;;;;;;5034241;28;20072;-87
2023/08/04 04:24:06;;;;;;;11.77;2.95;;;;;;;;;;5050660;28;20045;-86
2023/08/04 04:26:51;;;;;;;10.50;3.10;;;;;;;;;;4994344;28;20046;-87
2023/08/04 04:29:33;;;;;;;11.55;2.88;;;;;;;;;;5004831;28;20038;-87
2023/08/04 04:32:15;;;;;;;9.38;2.78;;;;;;;;;;5016943;28;20068;-86
2023/08/04 04:35:01;;;;;;;14.40;2.42;;;;;;;;;;5029812;28;20065;-87
2023/08/04 04:37:46;;;;;;;9.10;2.85;;;;;;;;;;5011504;28;20065;-87
2023/08/04 04:40:27;;;;;;;9.15;2.70;;;;;;;;;;5014139;28;20036;-86
2023/08/04 04:43:15;;;;;;;15.98;3.55;;;;;;;;;;5017538;28;20069;-87
2023/08/04 04:46:07;;;;;;;10.43;3.08;;;;;;;;;;5164914;22;20209;-86
2023/08/04 04:48:48;;;;;;;6.03;2.60;;;;;;;;;;5074327;28;20037;-86
2023/08/04 04:51:30;;;;;;;13.07;3.17;;;;;;;;;;5091571;28;20041;-87
2023/08/04 04:54:22;;;;;;;13.77;2.63;;;;;;;;;;5084199;28;20125;-87
2023/08/04 04:57:06;;;;;;;11.07;2.85;;;;;;;;;;5072614;28;20043;-87
2023/08/04 04:59:46;;;;;;;10.45;3.22;;;;;;;;;;5073486;28;20040;-87
2023/08/04 05:02:27;;;;;;;18.20;2.88;;;;;;;;;;5072966;28;20044;-87
2023/08/04 05:05:19;;;;;;;;;;;;;;;;;;;;;
2023/08/04 05:08:39;;;;;;;9.88;2.75;;;;;;;;;;5090060;28;20036;-88
2023/08/04 05:11:50;;;;;;;7.55;2.92;;;;;;;;;;5072894;28;20068;-87
2023/08/04 05:14:46;;;;;;;12.38;2.42;;;;;;;;;;5078769;28;20048;-88
2023/08/04 05:18:03;;;;;;;9.70;2.40;;;;;;;;;;5086406;22;20068;-89
2023/08/04 05:20:52;;;;;;;15.23;3.55;;;;;;;;;;5032028;28;20048;-87
2023/08/04 05:31:21;;;;;;;8.05;2.88;;;;;;;;;;5092149;28;20456;-88
2023/08/04 05:34:04;;;;;;;10.40;2.42;;;;;;;;;;5079234;28;20032;-87
2023/08/04 05:36:46;;;;;;;5.30;2.13;;;;;;;;;;5079102;28;20036;-87
2023/08/04 05:39:44;;;;;;;5.50;2.47;;;;;;;;;;5095204;28;20033;-88
2023/08/04 05:42:50;;;;;;;9.73;3.03;;;;;;;;;;5095749;28;20048;-87
2023/08/04 05:45:32;;;;;;;;;;;;;;;;;;5098419;28;20032;-89
2023/08/04 05:48:14;;;;;;;7.68;1.73;;;;;;;;;;5096060;28;19928;-90
2023/08/04 05:50:58;;;;;;;10.75;2.00;;;;;;;;;;5080870;28;20067;-90
2023/08/04 05:53:46;;;;;;;7.22;2.00;;;;;;;;;;5079929;28;20044;-90
2023/08/04 05:59:05;;;;;;;11.57;2.03;;;;;;;;;;5241868;22;20015;-90
2023/08/04 06:01:48;;;;;;;12.88;2.60;;;;;;;;;;5080918;28;20066;-90
2023/08/04 06:15:58;;;;;;;6.72;1.80;;;;;;;;;;5385263;22;20044;-89
2023/08/04 06:18:41;;;;;;;5.68;2.00;;;;;;;;;;5114860;22;20053;-91
2023/08/04 06:24:00;;;;;;;15.70;2.28;;;;;;;;;;5118953;22;20098;-89
2023/08/04 06:30:05;;;;;;;8.63;2.05;;;;;;;;;;5220020;22;20055;-89
2023/08/04 06:32:47;;;;;;;8.75;1.92;;;;;;;;;;5096946;28;20056;-88
2023/08/04 06:38:05;;;;;;;10.32;2.65;;;;;;;;;;5054380;28;20075;-89
2023/08/04 06:40:47;;;;;;;3.95;1.65;;;;;;;;;;5055737;28;20037;-89
2023/08/04 06:43:40;;;;;;;3.90;2.25;;;;;;;;;;5054736;28;20065;-90
2023/08/04 06:46:31;;;;;;;9.77;2.22;;;;;;;;;;5056703;28;20045;-89
2023/08/04 06:49:44;;;;;;;4.00;1.67;;;;;;;;;;5055954;28;20043;-90
2023/08/04 06:52:40;;;;;;;9.07;1.70;;;;;;;;;;5258039;23;20108;-89
2023/08/04 07:01:10;;;;;;;2.08;1.50;;;;;;;;;;5231623;22;20345;-90
2023/08/04 07:04:19;;;;;;;6.93;1.35;;;;;;;;;;5074625;28;20278;-90
2023/08/04 07:07:00;;;;;;;5.35;1.40;;;;;;;;;;5075456;28;20071;-90
2023/08/04 07:12:43;;;;;;;3.85;1.42;;;;;;;;;;5106647;22;20325;-87
2023/08/04 07:15:28;;;;;;;5.53;1.35;;;;;;;;;;5090467;28;20097;-87
2023/08/04 07:18:13;;;;;;;5.97;1.17;;;;;;;;;;5089201;28;20028;-87
2023/08/04 07:21:33;;;;;;;3.60;1.13;;;;;;;;;;5089425;28;20024;-87
2023/08/04 07:34:37;;;;;;;4.28;1.30;;;;;;;;;;5068793;28;20123;-87
2023/08/04 07:37:25;;;;;;;;;;;;;;;;;;5062373;28;20264;-88
2023/08/04 07:40:26;;;;;;;6.50;1.02;;;;;;;;;;5050443;28;19921;-87
2023/08/04 07:43:21;;;;;;;3.90;1.00;;;;;;;;;;5068425;28;20092;-88
2023/08/04 07:46:10;;;;;;;2.40;0.75;;;;;;;;;;5054608;28;20045;-88
2023/08/04 07:48:53;;;;;;;;;;;;;;;;;;5053826;28;20120;-87
2023/08/04 07:51:49;;;;;;;6.18;1.00;;;;;;;;;;5051936;28;19905;-87
2023/08/04 09:56:19;;;;;;;2.70;0.70;;;;;;;;;;5049806;28;20057;-88
2023/08/04 10:10:38;;;;;;;0.93;0.45;;;;;;;;;;5070966;26;20049;-88
2023/08/04 10:13:40;;;;;;;3.63;0.57;;;;;;;;;;5070111;28;20065;-88
2023/08/04 10:16:46;;;;;;;3.40;0.70;;;;;;;;;;5101280;22;20072;-89
2023/08/04 10:19:35;;;;;;;1.85;0.35;;;;;;;;;;5401486;22;20052;-88
2023/08/04 10:55:11;;;;;;;2.17;0.60;;;;;;;;;;5255879;22;20077;-87
2023/08/04 10:58:19;;;;;;;4.47;1.27;;;;;;;;;;5073094;28;20036;-88
2023/08/04 11:01:10;;;;;;;2.95;0.73;;;;;;;;;;5043956;28;20183;-88
2023/08/04 11:04:27;;;;;;;4.70;0.60;;;;;;;;;;5070876;28;20040;-88
2023/08/04 11:08:15;;;;;;;;;;;;;;;;;;;;;
2023/08/04 11:16:32;;;;;;;2.28;0.60;;;;;;;;;;5069703;22;20059;-88
2023/08/04 11:19:19;;;;;;;1.40;0.60;;;;;;;;;;5181884;22;20400;-87
2023/08/04 11:22:07;;;;;;;3.60;0.50;;;;;;;;;;5076659;28;20102;-90
2023/08/04 11:25:06;;;;;;;1.20;0.63;;;;;;;;;;5092300;28;20100;-88
2023/08/04 11:28:18;;;;;;;1.35;0.60;;;;;;;;;;5209450;22;20067;-89
2023/08/04 11:31:21;;;;;;;1.58;0.40;;;;;;;;;;5277124;22;20071;-90
2023/08/04 11:34:16;;;;;;;0.73;0.50;;;;;;;;;;5086251;28;20440;-90
2023/08/04 11:40:53;;;;;;;2.58;0.47;;;;;;;;;;5092248;28;20067;-89
2023/08/04 11:43:40;;;;;;;2.92;0.40;;;;;;;;;;5074903;28;20056;-89
2023/08/04 11:46:27;;;;;;;2.97;0.50;;;;;;;;;;5091854;28;20055;-90
2023/08/04 11:57:55;;;;;;;3.63;0.80;;;;;;;;;;5071498;28;20033;-89
2023/08/04 12:00:36;;;;;;;4.68;0.77;;;;;;;;;;5056458;28;20047;-89
2023/08/04 12:03:49;;;;;;;3.70;0.55;;;;;;;;;;5071020;28;20040;-90
2023/08/04 12:06:31;;;;;;;2.05;0.50;;;;;;;;;;5056044;28;20033;-90
2023/08/04 12:09:19;;;;;;;1.13;0.60;;;;;;;;;;5191881;22;20053;-90
2023/08/04 12:14:40;;;;;;;3.13;0.80;;;;;;;;;;5256574;22;20034;-91
2023/08/04 12:17:35;;;;;;;1.63;0.55;;;;;;;;;;5089286;28;20232;-89
2023/08/04 12:20:35;;;;;;;3.47;0.60;;;;;;;;;;5072201;28;20032;-89
2023/08/04 12:23:24;;;;;;;2.78;0.40;;;;;;;;;;5087708;28;20057;-89
2023/08/04 12:26:15;;;;;;;2.30;0.50;;;;;;;;;;5092097;28;20024;-91
2023/08/04 12:29:01;;;;;;;1.75;0.50;;;;;;;;;;5090119;28;20082;-89
2023/08/04 12:31:43;;;;;;;1.30;0.30;;;;;;;;;;5180470;22;20084;-89
2023/08/04 12:34:24;;;;;;;2.92;0.60;;;;;;;;;;5044077;28;20139;-88
2023/08/04 12:37:09;;;;;;;1.90;0.50;;;;;;;;;;5064579;28;20039;-90
2023/08/04 12:39:57;;;;;;;2.67;0.60;;;;;;;;;;5136364;22;20111;-89
2023/08/04 12:42:41;;;;;;;1.65;0.50;;;;;;;;;;5068596;28;20045;-88
2023/08/04 12:45:37;;;;;;;0.75;0.30;;;;;;;;;;5077198;28;20040;-92
2023/08/04 12:48:22;;;;;;;4.78;0.63;;;;;;;;;;5089467;28;20044;-89
2023/08/04 12:51:05;;;;;;;6.43;0.90;;;;;;;;;;5089928;28;20051;-89
2023/08/04 12:54:08;;;;;;;3.05;0.65;;;;;;;;;;5065325;28;20049;-91
2023/08/04 12:57:10;;;;;;;3.30;1.05;;;;;;;;;;5071001;28;20257;-91
2023/08/04 12:59:46;;;;;;;1.63;0.40;;;;;;;;;;5074857;28;20056;-89
2023/08/04 13:02:30;;;;;;;3.65;0.70;;;;;;;;;;5072203;28;20055;-90
2023/08/04 13:05:15;;;;;;;;;;;;;;;;;;5080153;28;20029;-91
2023/08/04 13:08:06;;;;;;;2.45;0.55;;;;;;;;;;5092805;28;19905;-89
2023/08/04 13:13:54;;;;;;;2.03;0.50;;;;;;;;;;5325152;22;20072;-89
2023/08/04 13:16:44;;;;;;;2.08;0.70;;;;;;;;;;5090533;28;20049;-91
2023/08/04 13:19:25;;;;;;;3.38;0.50;;;;;;;;;;5076774;28;20102;-90
2023/08/04 13:22:18;;;;;;;4.03;0.50;;;;;;;;;;5074558;28;20043;-90
2023/08/04 13:24:59;;;;;;;2.30;0.57;;;;;;;;;;5076428;28;20059;-89
2023/08/04 13:30:34;;;;;;;1.52;0.55;;;;;;;;;;5179444;22;20052;-89
2023/08/04 13:33:14;;;;;;;2.47;0.55;;;;;;;;;;5074309;28;20049;-90
2023/08/04 13:35:58;;;;;;;2.70;0.50;;;;;;;;;;5094106;28;20036;-91
2023/08/04 13:38:40;;;;;;;2.78;0.52;;;;;;;;;;5078706;28;20044;-89
2023/08/04 13:41:23;;;;;;;2.28;0.45;;;;;;;;;;5079925;28;20029;-90
2023/08/04 13:47:00;;;;;;;3.63;0.70;;;;;;;;;;5112368;22;20060;-87
2023/08/04 13:50:19;;;;;;;3.80;0.70;;;;;;;;;;5089580;28;20083;-88
2023/08/04 13:53:16;;;;;;;2.30;0.60;;;;;;;;;;5087432;28;20025;-87
2023/08/04 13:56:10;;;;;;;4.88;0.65;;;;;;;;;;5089756;28;20063;-89
2023/08/04 13:59:37;;;;;;;3.60;0.65;;;;;;;;;;5092061;28;20048;-88
2023/08/04 14:14:43;;;;;;;1.83;0.60;;;;;;;;;;1294701;26;20028;-89
2023/08/04 14:17:36;;;;;;;2.77;0.80;;;;;;;;;;5077964;28;20040;-88
2023/08/04 14:20:26;;;;;;;4.03;0.77;;;;;;;;;;5091996;28;20036;-88
2023/08/04 14:23:10;;;;;;;6.28;1.40;;;;;;;;;;5089546;28;20048;-89
2023/08/04 14:29:18;;;;;;;8.52;1.40;;;;;;;;;;5070233;28;20059;-89
2023/08/04 14:31:58;;;;;;;4.97;1.27;;;;;;;;;;5054307;28;20063;-89
2023/08/04 14:34:41;;;;;;;4.47;1.67;;;;;;;;;;5057071;28;20052;-89
2023/08/04 14:37:23;;;;;;;5.15;1.13;;;;;;;;;;5055849;28;20098;-86
2023/08/04 14:40:27;;;;;;;2.67;1.10;;;;;;;;;;5073417;28;20044;-90
2023/08/04 14:43:41;;;;;;;4.15;0.95;;;;;;;;;;5070002;28;20048;-87
2023/08/04 14:46:22;;;;;;;7.93;0.98;;;;;;;;;;5071603;28;20064;-89
2023/08/04 14:49:05;;;;;;;5.75;1.30;;;;;;;;;;5054229;28;20053;-86
2023/08/04 14:51:50;;;;;;;3.78;0.70;;;;;;;;;;5064388;28;20222;-86
2023/08/04 14:54:40;;;;;;;3.28;0.93;;;;;;;;;;5053567;28;20048;-87
2023/08/04 14:57:26;;;;;;;5.97;1.42;;;;;;;;;;5064476;28;20109;-88
2023/08/04 15:00:26;;;;;;;4.13;1.67;;;;;;;;;;5070125;28;20099;-87
2023/08/04 15:03:17;;;;;;;7.72;1.27;;;;;;;;;;5067060;28;20226;-87
2023/08/04 15:09:12;;;;;;;2.83;0.80;;;;;;;;;;5288850;22;20056;-86
2023/08/04 15:11:55;;;;;;;5.22;1.10;;;;;;;;;;5052167;28;20207;-87
2023/08/04 15:14:47;;;;;;;5.35;1.20;;;;;;;;;;5072336;28;20380;-87
2023/08/04 15:23:18;;;;;;;3.63;1.33;;;;;;;;;;5522244;22;20482;-87
2023/08/04 15:26:11;;;;;;;8.77;1.52;;;;;;;;;;5084526;28;20096;-87
2023/08/04 15:29:30;;;;;;;7.70;1.42;;;;;;;;;;5093307;28;20050;-86
2023/08/04 15:40:09;;;;;;;5.00;2.13;;;;;;;;;;5221223;22;20056;-86
2023/08/04 15:42:50;;;;;;;4.40;2.03;;;;;;;;;;5048188;28;20083;-86
2023/08/04 15:45:33;;;;;;;6.75;1.95;;;;;;;;;;5064243;28;20048;-87
2023/08/04 15:48:15;;;;;;;3.83;1.20;;;;;;;;;;5052058;28;20053;-87
2023/08/04 15:51:35;;;;;;;;;;;;;;;;;;;;;
2023/08/04 15:54:27;;;;;;;4.20;1.52;;;;;;;;;;5066978;28;20104;-86
2023/08/04 16:07:41;;;;;;;3.37;1.00;;;;;;;;;;5407610;22;20053;-87
2023/08/04 16:10:25;;;;;;;5.05;1.48;;;;;;;;;;5073381;28;20150;-87
2023/08/04 16:13:42;;;;;;;3.63;1.38;;;;;;;;;;5090970;28;20037;-86
2023/08/04 16:17:33;;;;;;;3.55;1.30;;;;;;;;;;5090658;28;20084;-86
2023/08/04 16:23:03;;;;;;;6.00;2.80;;;;;;;;;;5183473;22;20053;-86
2023/08/04 16:32:25;;;;;;;16.92;8.70;;;;;;;;;;5047372;28;20287;-90
2023/08/04 16:35:09;;;;;;;10.68;3.05;;;;;;;;;;5084125;28;20155;-86
2023/08/04 16:37:52;;;;;;;18.70;9.23;;;;;;;;;;5069815;28;20057;-85
2023/08/04 16:41:05;;;;;;;9.70;3.17;;;;;;;;;;5084046;28;20036;-87
2023/08/04 16:43:51;;;;;;;5.28;2.00;;;;;;;;;;5066226;28;20041;-86
2023/08/04 16:46:40;;;;;;;6.75;2.15;;;;;;;;;;5071780;28;20032;-87
2023/08/04 16:49:47;;;;;;;5.70;1.77;;;;;;;;;;5088107;28;20125;-86
2023/08/04 16:52:32;;;;;;;4.60;1.77;;;;;;;;;;5073148;28;20051;-86
2023/08/04 16:55:13;;;;;;;5.32;1.60;;;;;;;;;;5071202;28;20040;-86
2023/08/04 16:58:14;;;;;;;10.88;1.90;;;;;;;;;;5076152;28;20036;-88
2023/08/04 17:33:05;;;;;;;2.90;1.65;;;;;;;;;;5090945;28;20361;-86
2023/08/04 17:36:43;;;;;;;5.45;2.40;;;;;;;;;;5088832;28;20060;-86
2023/08/04 17:42:06;;;;;;;6.15;2.28;;;;;;;;;;5213537;22;20443;-87
2023/08/04 17:45:13;;;;;;;3.53;1.80;;;;;;;;;;5050049;28;20053;-87
2023/08/04 17:47:59;;;;;;;6.53;1.60;;;;;;;;;;5108352;22;20082;-87
2023/08/04 17:50:54;;;;;;;3.65;1.70;;;;;;;;;;5068240;28;20123;-86
2023/08/04 17:54:04;;;;;;;5.32;1.98;;;;;;;;;;5056143;28;20108;-87
2023/08/04 17:57:03;;;;;;;4.13;2.05;;;;;;;;;;5259438;22;20040;-89
2023/08/04 18:00:08;;;;;;;6.30;1.92;;;;;;;;;;5081801;28;20052;-89
2023/08/04 18:06:14;;;;;;;3.40;1.63;;;;;;;;;;5097588;28;20047;-89
2023/08/04 18:09:06;;;;;;;4.67;1.57;;;;;;;;;;5094839;28;20070;-91
2023/08/04 18:11:50;;;;;;;2.92;1.40;;;;;;;;;;5096196;28;20451;-89
2023/08/04 18:17:30;;;;;;;2.40;1.40;;;;;;;;;;5319254;22;20072;-90
2023/08/04 18:20:17;;;;;;;3.80;1.27;;;;;;;;;;5058524;28;20095;-89
2023/08/04 18:23:03;;;;;;;4.72;1.92;;;;;;;;;;5052300;28;20043;-90
2023/08/04 18:26:07;;;;;;;7.90;1.70;;;;;;;;;;5015225;28;20356;-90
2023/08/04 18:28:54;;;;;;;9.07;1.70;;;;;;;;;;5000529;28;20092;-89
2023/08/04 18:31:36;;;;;;;13.57;2.22;;;;;;;;;;5012442;28;20054;-89
2023/08/04 18:34:19;;;;;;;4.55;1.77;;;;;;;;;;4999370;28;20026;-90
2023/08/04 18:37:28;;;;;;;3.08;1.55;;;;;;;;;;4999853;28;20030;-89
2023/08/04 18:40:32;;;;;;;3.35;1.55;;;;;;;;;;5000348;28;20030;-89
2023/08/04 18:47:14;;;;;;;4.90;1.77;;;;;;;;;;5012863;28;20092;-89
2023/08/04 18:52:30;;;;;;;8.33;2.03;;;;;;;;;;5158013;22;20056;-89
2023/08/04 18:55:17;;;;;;;8.75;1.90;;;;;;;;;;5078538;28;20043;-89
2023/08/04 19:01:41;;;;;;;2.72;1.50;;;;;;;;;;5094910;28;20203;-88
2023/08/04 19:04:27;;;;;;;4.95;1.63;;;;;;;;;;5090551;28;20066;-89
2023/08/04 19:07:14;;;;;;;4.20;1.80;;;;;;;;;;5094137;28;20056;-89
2023/08/04 19:09:58;;;;;;;6.43;1.75;;;;;;;;;;5067158;28;20043;-88
2023/08/04 19:12:47;;;;;;;4.18;1.90;;;;;;;;;;5077081;28;20024;-88
2023/08/04 19:15:44;;;;;;;6.75;1.45;;;;;;;;;;5077378;28;20174;-89
2023/08/04 19:22:00;;;;;;;8.68;2.45;;;;;;;;;;5092590;28;20043;-88
2023/08/04 19:24:47;;;;;;;6.20;1.50;;;;;;;;;;5092567;28;20187;-87
2023/08/04 19:27:39;;;;;;;6.95;2.42;;;;;;;;;;5087383;28;20043;-87
2023/08/04 19:30:30;;;;;;;5.28;1.55;;;;;;;;;;5074855;28;20056;-87
2023/08/04 19:33:28;;;;;;;4.25;1.83;;;;;;;;;;5074171;28;20067;-87
2023/08/04 19:39:26;;;;;;;6.20;1.73;;;;;;;;;;5087693;28;20044;-87
2023/08/04 19:42:10;;;;;;;6.90;2.20;;;;;;;;;;5073794;28;20095;-87
2023/08/04 19:45:13;;;;;;;7.80;2.22;;;;;;;;;;5074551;28;20032;-87
2023/08/04 19:47:54;;;;;;;9.85;2.20;;;;;;;;;;5073421;28;20044;-87
2023/08/04 19:50:39;;;;;;;7.53;2.10;;;;;;;;;;5089051;28;20203;-86
2023/08/04 19:53:22;;;;;;;4.63;1.73;;;;;;;;;;5072994;28;20062;-86
2023/08/04 19:56:04;;;;;;;5.82;2.05;;;;;;;;;;5074927;28;20113;-87
2023/08/04 19:58:48;;;;;;;6.30;2.10;;;;;;;;;;5090333;28;20032;-87
2023/08/04 20:01:32;;;;;;;5.35;2.30;;;;;;;;;;5070939;28;20048;-87
2023/08/04 20:04:21;;;;;;;11.70;2.00;;;;;;;;;;5091321;28;20032;-86
2023/08/04 20:07:05;;;;;;;5.38;2.20;;;;;;;;;;5088466;28;20502;-86
2023/08/04 20:09:48;;;;;;;6.80;2.08;;;;;;;;;;5087113;28;20040;-86
2023/08/04 20:12:32;;;;;;;6.80;2.45;;;;;;;;;;5072475;28;20040;-86
2023/08/04 20:15:17;;;;;;;7.43;2.30;;;;;;;;;;5071206;28;20048;-86
2023/08/04 20:18:01;;;;;;;9.00;2.35;;;;;;;;;;5068910;28;20076;-86
2023/08/04 20:20:51;;;;;;;7.65;2.30;;;;;;;;;;5064119;28;20178;-87
2023/08/04 20:23:34;;;;;;;6.00;2.15;;;;;;;;;;5057423;28;20052;-87
2023/08/04 20:26:05;;;;;;;7.30;1.90;;;;;;;;;;5052876;28;20437;-87
2023/08/04 20:28:36;;;;;;;3.17;1.45;;;;;;;;;;5072324;28;20045;-87
2023/08/04 20:31:06;;;;;;;6.63;1.77;;;;;;;;;;5064119;28;20053;-87
2023/08/04 20:33:33;;;;;;;3.88;2.03;;;;;;;;;;5057583;28;20416;-87
2023/08/04 20:36:03;;;;;;;8.43;2.38;;;;;;;;;;5080327;28;20051;-87
2023/08/04 20:38:44;;;;;;;9.60;2.05;;;;;;;;;;5082537;28;20051;-87
2023/08/04 20:41:37;;;;;;;9.23;1.92;;;;;;;;;;5086072;28;20119;-87
2023/08/04 20:44:21;;;;;;;9.50;2.60;;;;;;;;;;5067873;28;20048;-87
2023/08/04 20:47:02;;;;;;;13.30;3.20;;;;;;;;;;5064624;28;20473;-87
2023/08/04 20:49:31;;;;;;;7.75;1.88;;;;;;;;;;5078924;28;20048;-87
2023/08/04 20:51:58;;;;;;;8.68;1.95;;;;;;;;;;5055677;28;20083;-87
2023/08/04 20:54:25;;;;;;;12.02;4.25;;;;;;;;;;5066724;28;20068;-87
2023/08/04 20:56:52;;;;;;;9.63;2.83;;;;;;;;;;5056068;28;20052;-87
2023/08/04 20:59:20;;;;;;;6.82;2.35;;;;;;;;;;5055665;28;20436;-87
2023/08/04 21:01:49;;;;;;;6.45;2.22;;;;;;;;;;5073591;28;20044;-87
2023/08/04 21:04:26;;;;;;;7.28;2.35;;;;;;;;;;5056463;28;20045;-87
2023/08/04 21:06:53;;;;;;;6.95;2.88;;;;;;;;;;5071524;28;20068;-87
2023/08/04 21:09:20;;;;;;;6.15;2.00;;;;;;;;;;5054670;28;20206;-87
2023/08/04 21:11:55;;;;;;;6.70;1.98;;;;;;;;;;5056497;28;20075;-87
2023/08/04 21:14:22;;;;;;;10.55;2.63;;;;;;;;;;5057021;28;20052;-87
2023/08/04 21:16:49;;;;;;;8.13;2.28;;;;;;;;;;5056322;28;20044;-87
2023/08/04 21:19:20;;;;;;;12.52;2.22;;;;;;;;;;5054095;28;20044;-87
2023/08/04 21:21:51;;;;;;;10.07;2.53;;;;;;;;;;5053402;28;20083;-87
2023/08/04 21:24:19;;;;;;;9.88;3.10;;;;;;;;;;5054137;28;20439;-88
2023/08/04 21:27:00;;;;;;;8.73;2.25;;;;;;;;;;5067161;28;20251;-87
2023/08/04 21:29:27;;;;;;;16.85;2.85;;;;;;;;;;5052411;28;20365;-86
2023/08/04 21:31:54;;;;;;;7.43;2.60;;;;;;;;;;5070724;28;20052;-87
2023/08/04 21:34:22;;;;;;;6.80;1.90;;;;;;;;;;5053137;28;20044;-86
2023/08/04 21:36:52;;;;;;;5.43;2.50;;;;;;;;;;5052322;28;20427;-86
2023/08/04 21:39:19;;;;;;;6.05;2.45;;;;;;;;;;5051592;28;20055;-86
2023/08/04 21:41:58;;;;;;;5.78;2.55;;;;;;;;;;5070884;28;20108;-86
2023/08/04 21:44:28;;;;;;;11.10;2.50;;;;;;;;;;5052289;28;20236;-86
2023/08/04 21:47:01;;;;;;;7.50;2.42;;;;;;;;;;5055615;28;20093;-86
2023/08/04 21:49:36;;;;;;;12.73;2.65;;;;;;;;;;5063200;28;20056;-87
2023/08/04 21:52:04;;;;;;;7.38;2.58;;;;;;;;;;5054005;28;20159;-86
2023/08/04 21:54:35;;;;;;;6.90;2.50;;;;;;;;;;5071183;28;20068;-86
2023/08/04 21:57:02;;;;;;;15.93;2.70;;;;;;;;;;5056509;28;20226;-86
2023/08/04 21:59:31;;;;;;;5.60;2.47;;;;;;;;;;5057532;28;20116;-86
2023/08/04 22:02:00;;;;;;;6.78;1.92;;;;;;;;;;5059815;28;20055;-86
2023/08/04 22:04:28;;;;;;;8.45;2.40;;;;;;;;;;5059365;28;20045;-86
2023/08/04 22:06:55;;;;;;;5.50;1.80;;;;;;;;;;5059650;28;20407;-86
2023/08/04 22:09:24;;;;;;;12.05;2.70;;;;;;;;;;5058365;28;20049;-87
2023/08/04 22:11:51;;;;;;;8.63;2.17;;;;;;;;;;5058714;28;20045;-87